Time;durP1;ratioP1;P1;durP2;ratioP2;P2;SDS_P1;SDS_P2;PMS_P1;PMS_P2;Temp;Humidity;BMP_temperature;BMP_pressure;BME280_temperature;BME280_humidity;BME280_pressure;Samples;Min_cycle;Max_cycle;Signal;HPM_P1;HPM_P2
2023/06/21 00:01:54;;;;;;;7.53;3.30;;;18.80;99.90;;;;;;5089297;28;20545;-64
2023/06/21 00:04:20;;;;;;;9.38;3.60;;;18.80;99.90;;;;;;5090419;28;20040;-64
2023/06/21 00:06:49;;;;;;;5.85;2.95;;;18.80;99.90;;;;;;5088711;28;20046;-64
2023/06/21 00:09:15;;;;;;;;;;;18.70;99.90;;;;;;5089963;28;20051;-63
2023/06/21 00:11:41;;;;;;;6.57;3.70;;;18.80;99.90;;;;;;5089264;28;19915;-65
2023/06/21 00:14:07;;;;;;;8.90;4.05;;;18.70;99.90;;;;;;5071000;28;20051;-64
2023/06/21 00:16:33;;;;;;;6.03;2.80;;;18.70;99.90;;;;;;5090396;28;20067;-64
2023/06/21 00:18:59;;;;;;;6.30;3.35;;;18.70;99.90;;;;;;5090276;28;20159;-64
2023/06/21 00:21:25;;;;;;;6.88;3.38;;;18.70;99.90;;;;;;5088802;28;20122;-64
2023/06/21 00:23:52;;;;;;;5.13;3.10;;;18.70;99.90;;;;;;5088992;28;20083;-64
2023/06/21 00:26:18;;;;;;;5.57;3.40;;;18.70;99.90;;;;;;5088964;28;20043;-64
2023/06/21 00:28:44;;;;;;;5.70;3.50;;;18.70;99.90;;;;;;5088530;28;20039;-63
2023/06/21 00:31:10;;;;;;;6.68;3.50;;;18.60;99.90;;;;;;5090208;28;20036;-64
2023/06/21 00:33:37;;;;;;;9.55;3.83;;;18.60;99.90;;;;;;5088441;28;20044;-64
2023/06/21 00:36:03;;;;;;;7.00;3.60;;;18.60;99.90;;;;;;5088947;28;20055;-64
2023/06/21 00:38:34;;;;;;;6.32;3.38;;;18.60;99.90;;;;;;5048888;28;20041;-64
2023/06/21 00:41:07;;;;;;;7.65;3.75;;;18.60;99.90;;;;;;5049582;28;20397;-64
2023/06/21 00:43:34;;;;;;;9.48;4.50;;;18.50;99.90;;;;;;5049933;28;20041;-66
2023/06/21 00:46:00;;;;;;;7.90;4.28;;;18.50;99.90;;;;;;5048601;28;20045;-65
2023/06/21 00:48:28;;;;;;;10.27;4.28;;;18.50;99.90;;;;;;5031719;28;20465;-65
2023/06/21 00:50:55;;;;;;;7.68;3.97;;;18.50;99.90;;;;;;5048756;28;20033;-65
2023/06/21 00:53:26;;;;;;;7.97;4.43;;;18.50;99.90;;;;;;5031826;28;20146;-65
2023/06/21 00:55:52;;;;;;;13.30;4.35;;;18.50;99.90;;;;;;5049402;28;20047;-65
2023/06/21 00:58:20;;;;;;;6.03;3.45;;;18.40;99.90;;;;;;5048559;28;20088;-65
2023/06/21 01:00:49;;;;;;;7.03;3.70;;;18.40;99.90;;;;;;5086034;28;20075;-65
2023/06/21 01:03:20;;;;;;;7.93;4.05;;;18.40;99.90;;;;;;5088276;28;20079;-65
2023/06/21 01:06:04;;;;;;;7.45;4.35;;;18.40;99.90;;;;;;5089998;28;20048;-64
2023/06/21 01:09:07;;;;;;;8.07;3.92;;;18.40;99.90;;;;;;5089509;28;20033;-65
2023/06/21 01:11:46;;;;;;;7.45;3.85;;;18.40;99.90;;;;;;5082229;28;20127;-65
2023/06/21 01:14:49;;;;;;;15.43;5.55;;;18.30;99.90;;;;;;5071755;28;20542;-65
2023/06/21 01:17:19;;;;;;;9.05;4.25;;;18.30;99.90;;;;;;5089105;28;20075;-65
2023/06/21 01:19:55;;;;;;;8.13;4.70;;;18.30;99.90;;;;;;5089955;28;20055;-65
2023/06/21 01:22:21;;;;;;;6.47;3.95;;;18.30;99.90;;;;;;5088665;28;20143;-65
2023/06/21 01:25:22;;;;;;;8.38;4.57;;;18.20;99.90;;;;;;5087841;28;20080;-65
2023/06/21 01:27:57;;;;;;;11.55;5.75;;;18.20;99.90;;;;;;5093383;28;20465;-65
2023/06/21 01:30:26;;;;;;;10.05;5.25;;;18.20;99.90;;;;;;5092694;28;20040;-65
2023/06/21 01:32:54;;;;;;;8.73;4.90;;;18.20;99.90;;;;;;5088468;28;20047;-65
2023/06/21 01:35:22;;;;;;;10.43;4.82;;;18.20;99.90;;;;;;5071753;28;20041;-65
2023/06/21 01:37:51;;;;;;;11.93;5.53;;;18.20;99.90;;;;;;5072549;28;20044;-65
2023/06/21 01:40:17;;;;;;;12.52;5.97;;;18.30;99.90;;;;;;5071725;28;20094;-65
2023/06/21 01:42:44;;;;;;;8.63;4.22;;;18.30;99.90;;;;;;5071528;28;20033;-64
2023/06/21 01:45:10;;;;;;;10.40;5.57;;;18.30;99.90;;;;;;5072395;28;20044;-65
2023/06/21 01:47:37;;;;;;;15.07;5.88;;;18.30;99.90;;;;;;5071526;28;20469;-65
2023/06/21 01:50:06;;;;;;;10.25;5.65;;;18.30;99.90;;;;;;5071535;28;20044;-65
2023/06/21 01:52:35;;;;;;;10.73;5.60;;;18.30;99.90;;;;;;5070572;28;20052;-65
2023/06/21 01:55:05;;;;;;;13.23;6.13;;;18.30;99.90;;;;;;5072617;28;20048;-65
2023/06/21 01:57:35;;;;;;;10.18;5.25;;;18.30;99.90;;;;;;5070738;28;20493;-65
2023/06/21 02:00:27;;;;;;;13.93;5.45;;;18.30;99.90;;;;;;5085234;28;20082;-65
2023/06/21 02:02:55;;;;;;;12.90;5.80;;;18.30;99.90;;;;;;5091438;28;20055;-65
2023/06/21 02:05:22;;;;;;;12.63;6.35;;;18.40;99.90;;;;;;5090938;28;20185;-65
2023/06/21 02:07:49;;;;;;;12.43;6.75;;;18.30;99.90;;;;;;5092681;28;20041;-65
2023/06/21 02:10:18;;;;;;;12.35;5.80;;;18.30;99.90;;;;;;5092725;28;20040;-65
2023/06/21 02:12:47;;;;;;;14.38;6.20;;;18.30;99.90;;;;;;5073925;28;20561;-65
2023/06/21 02:15:14;;;;;;;16.67;6.55;;;18.30;99.90;;;;;;5092496;28;20574;-65
2023/06/21 02:17:40;;;;;;;13.50;6.72;;;18.20;99.90;;;;;;5091457;28;20396;-65
2023/06/21 02:20:13;;;;;;;11.70;5.80;;;18.20;99.90;;;;;;5090535;28;20036;-65
2023/06/21 02:22:42;;;;;;;12.30;6.05;;;18.30;99.90;;;;;;5092380;28;20040;-64
2023/06/21 02:25:09;;;;;;;14.00;6.60;;;18.30;99.90;;;;;;5075965;28;20043;-65
2023/06/21 02:27:35;;;;;;;14.90;7.22;;;18.30;99.90;;;;;;5070511;28;20370;-65
2023/06/21 02:30:01;;;;;;;14.88;6.40;;;18.30;99.90;;;;;;5070677;28;20074;-65
2023/06/21 02:32:26;;;;;;;13.48;6.53;;;18.30;99.90;;;;;;5070490;28;20465;-65
2023/06/21 02:34:52;;;;;;;14.70;6.95;;;18.30;99.90;;;;;;5053980;28;20459;-65
2023/06/21 02:37:18;;;;;;;12.65;6.40;;;18.30;99.90;;;;;;5070258;28;20094;-64
2023/06/21 02:39:44;;;;;;;15.82;7.18;;;18.30;99.90;;;;;;5070212;28;20362;-65
2023/06/21 02:42:10;;;;;;;13.57;6.53;;;18.30;99.90;;;;;;5070588;28;20074;-65
2023/06/21 02:44:35;;;;;;;13.50;6.43;;;18.30;99.90;;;;;;5053764;28;20040;-65
2023/06/21 02:47:01;;;;;;;15.02;6.63;;;18.30;99.90;;;;;;5071287;28;20373;-65
2023/06/21 02:49:27;;;;;;;16.67;6.93;;;18.40;99.90;;;;;;5053996;28;20089;-65
2023/06/21 02:51:53;;;;;;;14.32;6.32;;;18.40;99.90;;;;;;5070058;28;20048;-65
2023/06/21 02:54:19;;;;;;;18.42;7.90;;;18.40;99.90;;;;;;5069584;28;20048;-65
2023/06/21 02:56:45;;;;;;;16.15;6.85;;;18.40;99.90;;;;;;5071410;28;20040;-65
2023/06/21 02:59:12;;;;;;;18.00;7.32;;;18.40;99.90;;;;;;5059049;28;20119;-65
2023/06/21 03:01:38;;;;;;;16.50;7.28;;;18.40;99.90;;;;;;5073135;28;20044;-65
2023/06/21 03:04:04;;;;;;;20.52;8.70;;;18.40;99.90;;;;;;5090305;28;20119;-65
2023/06/21 03:06:34;;;;;;;17.65;7.07;;;18.40;99.90;;;;;;5073622;28;20365;-65
2023/06/21 03:08:59;;;;;;;;;;;18.40;99.90;;;;;;5091338;28;20047;-65
2023/06/21 03:11:25;;;;;;;17.52;8.00;;;18.40;99.90;;;;;;5090486;28;19916;-65
2023/06/21 03:13:51;;;;;;;17.02;8.23;;;18.40;99.90;;;;;;5090049;28;20040;-65
2023/06/21 03:16:17;;;;;;;17.85;8.38;;;18.40;99.90;;;;;;5089422;28;20051;-65
2023/06/21 03:18:43;;;;;;;15.32;8.10;;;18.40;99.90;;;;;;5090017;28;20044;-64
2023/06/21 03:21:09;;;;;;;19.08;8.90;;;18.40;99.90;;;;;;5090000;28;20105;-64
2023/06/21 03:23:35;;;;;;;15.68;6.95;;;18.40;99.90;;;;;;5059917;28;20119;-65
2023/06/21 03:26:01;;;;;;;17.42;7.55;;;18.30;99.90;;;;;;5069654;28;20028;-65
2023/06/21 03:28:27;;;;;;;15.98;7.70;;;18.30;99.90;;;;;;5070166;28;20505;-65
2023/06/21 03:30:53;;;;;;;15.18;6.78;;;18.30;99.90;;;;;;5053250;28;20036;-65
2023/06/21 03:33:19;;;;;;;16.52;7.30;;;18.20;99.90;;;;;;5069491;28;20470;-65
2023/06/21 03:35:45;;;;;;;14.95;6.93;;;18.20;99.90;;;;;;5052446;28;20044;-65
2023/06/21 03:38:11;;;;;;;17.05;8.32;;;18.20;99.90;;;;;;5052698;28;20049;-64
2023/06/21 03:40:36;;;;;;;15.95;6.15;;;18.10;99.90;;;;;;5069713;28;20036;-64
2023/06/21 03:43:02;;;;;;;17.58;6.78;;;18.10;99.90;;;;;;5068659;28;20389;-65
2023/06/21 03:45:28;;;;;;;13.38;7.28;;;18.10;99.90;;;;;;5069675;28;20045;-65
2023/06/21 03:47:54;;;;;;;12.10;5.07;;;18.10;99.90;;;;;;5070614;28;20044;-64
2023/06/21 03:50:20;;;;;;;11.55;5.97;;;18.00;99.90;;;;;;5068855;28;20040;-65
2023/06/21 03:52:46;;;;;;;10.70;4.68;;;18.00;99.90;;;;;;5068988;28;20088;-65
2023/06/21 03:55:12;;;;;;;11.20;5.38;;;18.00;99.90;;;;;;5069178;28;20052;-64
2023/06/21 03:57:40;;;;;;;10.48;5.20;;;17.90;99.90;;;;;;5051841;28;20044;-64
2023/06/21 04:00:08;;;;;;;11.32;3.95;;;17.90;99.90;;;;;;5083402;28;20036;-65
2023/06/21 04:02:34;;;;;;;8.45;3.40;;;17.90;99.90;;;;;;5089374;28;20484;-65
2023/06/21 04:05:00;;;;;;;5.88;3.55;;;17.90;99.90;;;;;;5089944;28;20047;-65
2023/06/21 04:07:26;;;;;;;7.22;3.53;;;17.90;99.90;;;;;;5089294;28;20094;-65
2023/06/21 04:09:52;;;;;;;10.93;4.10;;;17.80;99.90;;;;;;5089481;28;20138;-64
2023/06/21 04:12:17;;;;;;;9.38;3.83;;;17.80;99.90;;;;;;5088550;28;20404;-65
2023/06/21 04:14:43;;;;;;;10.75;3.92;;;17.80;99.90;;;;;;5090407;28;20050;-65
2023/06/21 04:17:09;;;;;;;8.13;3.45;;;17.80;99.90;;;;;;5089306;28;20032;-64
2023/06/21 04:19:35;;;;;;;6.35;3.13;;;17.80;99.90;;;;;;5071651;28;20472;-64
2023/06/21 04:22:01;;;;;;;7.30;2.90;;;17.80;99.90;;;;;;5064122;28;20044;-64
2023/06/21 04:24:26;;;;;;;9.45;4.05;;;17.80;99.90;;;;;;5069480;28;20041;-65
2023/06/21 04:26:53;;;;;;;10.55;4.38;;;17.80;99.90;;;;;;5070055;28;20450;-65
2023/06/21 04:29:22;;;;;;;8.55;3.53;;;17.80;99.90;;;;;;5068795;28;20367;-65
2023/06/21 04:31:51;;;;;;;7.57;3.97;;;17.80;99.90;;;;;;5068584;28;20397;-65
2023/06/21 04:34:18;;;;;;;7.55;3.70;;;17.80;99.90;;;;;;5070065;28;20363;-65
2023/06/21 04:36:47;;;;;;;11.45;3.63;;;17.90;99.90;;;;;;5052175;28;20048;-64
2023/06/21 04:39:15;;;;;;;8.73;3.72;;;17.90;99.90;;;;;;5069444;28;20052;-65
2023/06/21 04:41:41;;;;;;;7.18;3.88;;;17.90;99.90;;;;;;5070340;28;20044;-65
2023/06/21 04:44:07;;;;;;;6.75;3.28;;;17.90;99.90;;;;;;5070043;28;20044;-65
2023/06/21 04:46:35;;;;;;;11.35;3.78;;;18.00;99.90;;;;;;5069517;28;20044;-64
2023/06/21 04:49:04;;;;;;;7.15;3.55;;;18.00;99.90;;;;;;5068724;28;20045;-64
2023/06/21 04:51:32;;;;;;;9.05;3.58;;;18.10;99.90;;;;;;5068526;28;20123;-65
2023/06/21 04:53:59;;;;;;;10.13;4.40;;;18.10;99.90;;;;;;5067973;28;20045;-65
2023/06/21 04:56:28;;;;;;;10.35;4.30;;;18.10;99.90;;;;;;5069788;28;20595;-65
2023/06/21 04:58:54;;;;;;;6.85;3.47;;;18.20;99.90;;;;;;5071961;28;20079;-64
2023/06/21 05:01:20;;;;;;;9.27;2.95;;;18.20;99.90;;;;;;5090683;28;20400;-65
2023/06/21 05:03:48;;;;;;;7.85;3.13;;;18.20;99.90;;;;;;5092726;28;20044;-65
2023/06/21 05:06:20;;;;;;;6.35;2.90;;;18.20;99.90;;;;;;5075647;28;20040;-65
2023/06/21 05:08:46;;;;;;;7.95;3.33;;;18.30;99.90;;;;;;5093644;28;20093;-66
2023/06/21 05:11:12;;;;;;;9.05;3.28;;;18.40;99.90;;;;;;5092530;28;20123;-65
2023/06/21 05:13:38;;;;;;;7.43;3.20;;;18.40;99.90;;;;;;5093356;28;20127;-64
2023/06/21 05:16:03;;;;;;;8.60;3.88;;;18.50;99.90;;;;;;5093774;28;20488;-64
2023/06/21 05:18:29;;;;;;;6.38;3.22;;;18.40;99.90;;;;;;5083389;28;20032;-64
2023/06/21 05:20:55;;;;;;;9.23;3.42;;;18.50;99.90;;;;;;5054810;28;20043;-64
2023/06/21 05:23:21;;;;;;;6.78;3.08;;;18.60;99.90;;;;;;5071969;28;20123;-64
2023/06/21 05:25:47;;;;;;;8.32;3.15;;;18.60;99.90;;;;;;5072278;28;20162;-65
2023/06/21 05:28:13;;;;;;;9.48;3.90;;;18.70;99.90;;;;;;5072578;28;20540;-65
2023/06/21 05:30:39;;;;;;;7.35;3.33;;;18.70;99.90;;;;;;5072155;28;20123;-65
2023/06/21 05:33:05;;;;;;;7.82;3.53;;;18.80;99.90;;;;;;5055268;28;20118;-65
2023/06/21 05:35:30;;;;;;;4.93;2.83;;;18.90;99.90;;;;;;5071479;28;20400;-65
2023/06/21 05:37:56;;;;;;;7.97;2.72;;;19.00;99.90;;;;;;5071896;28;20097;-64
2023/06/21 05:40:22;;;;;;;8.55;2.97;;;19.00;99.90;;;;;;5071814;28;20051;-65
2023/06/21 05:42:48;;;;;;;5.88;2.78;;;19.10;99.90;;;;;;5072503;28;20120;-63
2023/06/21 05:45:14;;;;;;;5.85;2.90;;;19.20;99.90;;;;;;5071607;28;20194;-64
2023/06/21 05:47:40;;;;;;;5.63;2.92;;;19.20;99.90;;;;;;5054854;28;20032;-65
2023/06/21 05:50:06;;;;;;;8.75;3.45;;;19.30;99.90;;;;;;5070810;28;20078;-65
2023/06/21 05:52:32;;;;;;;8.40;3.33;;;19.40;99.90;;;;;;5071271;28;20052;-64
2023/06/21 05:54:58;;;;;;;6.43;3.47;;;19.40;99.90;;;;;;5071350;28;20044;-65
2023/06/21 05:57:26;;;;;;;4.60;2.70;;;19.50;99.90;;;;;;5072062;28;20040;-65
2023/06/21 05:59:53;;;;;;;6.10;2.93;;;19.60;99.90;;;;;;5082485;28;20044;-64
2023/06/21 06:02:19;;;;;;;6.93;3.35;;;19.60;99.90;;;;;;5091279;28;20496;-65
2023/06/21 06:04:45;;;;;;;10.05;2.75;;;19.70;99.90;;;;;;5090691;28;20032;-65
2023/06/21 06:07:12;;;;;;;6.18;3.15;;;19.80;99.90;;;;;;5092800;28;20521;-65
2023/06/21 06:09:39;;;;;;;6.97;2.60;;;19.90;99.90;;;;;;5091017;28;20039;-65
2023/06/21 06:12:05;;;;;;;7.13;2.55;;;19.90;99.90;;;;;;5090530;28;20044;-65
2023/06/21 06:14:31;;;;;;;6.90;2.92;;;20.00;99.90;;;;;;5083848;28;20036;-66
2023/06/21 06:16:57;;;;;;;6.20;2.67;;;20.10;99.90;;;;;;5070411;28;20195;-65
2023/06/21 06:19:23;;;;;;;4.85;2.13;;;20.20;99.90;;;;;;5072219;28;20098;-65
2023/06/21 06:21:50;;;;;;;8.32;3.25;;;20.30;99.90;;;;;;5071111;28;20036;-65
2023/06/21 06:24:16;;;;;;;3.58;1.92;;;20.30;99.90;;;;;;5069975;28;20451;-65
2023/06/21 06:26:41;;;;;;;8.48;3.25;;;20.50;99.90;;;;;;5070128;28;20048;-65
2023/06/21 06:29:07;;;;;;;9.85;3.28;;;20.60;99.90;;;;;;5070014;28;20535;-65
2023/06/21 06:31:33;;;;;;;6.00;3.22;;;20.70;99.90;;;;;;5070454;28;20029;-66
2023/06/21 06:33:59;;;;;;;3.72;1.77;;;20.90;99.90;;;;;;5070806;28;20045;-65
2023/06/21 06:36:25;;;;;;;4.07;2.10;;;21.10;99.90;;;;;;5069617;28;20571;-65
2023/06/21 06:38:52;;;;;;;5.03;2.67;;;21.20;99.90;;;;;;5070446;28;20041;-66
2023/06/21 06:41:19;;;;;;;6.72;2.45;;;21.40;99.90;;;;;;5070698;28;20040;-65
2023/06/21 06:43:45;;;;;;;6.38;2.22;;;21.60;99.90;;;;;;5070788;28;20048;-66
2023/06/21 06:46:11;;;;;;;3.92;1.63;;;21.80;99.90;;;;;;5052213;28;20051;-65
2023/06/21 06:48:37;;;;;;;2.95;1.67;;;21.90;99.90;;;;;;5069400;28;20032;-65
2023/06/21 06:51:02;;;;;;;3.58;1.58;;;22.00;99.90;;;;;;5070701;28;20036;-65
2023/06/21 06:53:28;;;;;;;6.90;1.73;;;22.10;99.90;;;;;;5068493;28;20064;-66
2023/06/21 06:55:58;;;;;;;6.47;2.10;;;22.10;99.90;;;;;;5069322;28;20130;-66
2023/06/21 06:58:24;;;;;;;4.57;2.17;;;22.10;99.90;;;;;;5048986;28;20040;-65
2023/06/21 07:00:50;;;;;;;3.80;1.83;;;22.10;99.90;;;;;;5088962;28;20043;-66
2023/06/21 07:03:16;;;;;;;4.60;1.25;;;22.20;99.90;;;;;;5089139;28;20044;-66
2023/06/21 07:05:43;;;;;;;4.53;1.48;;;22.40;99.90;;;;;;5088541;28;20040;-66
2023/06/21 07:08:10;;;;;;;5.03;2.20;;;22.50;99.90;;;;;;5072656;28;20042;-65
2023/06/21 07:10:36;;;;;;;3.67;1.88;;;22.60;99.90;;;;;;5080626;28;20116;-66
2023/06/21 07:13:02;;;;;;;4.43;1.70;;;22.60;99.90;;;;;;5069974;28;20505;-66
2023/06/21 07:15:28;;;;;;;2.97;1.55;;;22.60;99.90;;;;;;5051767;28;20044;-66
2023/06/21 07:17:55;;;;;;;7.10;1.90;;;22.60;99.90;;;;;;5068974;28;20044;-66
2023/06/21 07:20:21;;;;;;;3.25;1.58;;;22.80;99.90;;;;;;5068033;28;20101;-66
2023/06/21 07:22:47;;;;;;;3.75;1.50;;;23.00;99.90;;;;;;5069020;28;20043;-66
2023/06/21 07:25:14;;;;;;;6.60;1.65;;;23.10;99.90;;;;;;5068432;28;20032;-66
2023/06/21 07:27:40;;;;;;;3.70;1.70;;;23.20;99.90;;;;;;5068350;28;20393;-67
2023/06/21 07:30:07;;;;;;;4.30;2.45;;;23.20;99.90;;;;;;5068568;28;20032;-66
2023/06/21 07:32:33;;;;;;;3.88;1.77;;;23.30;99.90;;;;;;5068493;28;20052;-66
2023/06/21 07:34:59;;;;;;;3.00;1.52;;;23.30;99.90;;;;;;5069377;28;20036;-65
2023/06/21 07:37:27;;;;;;;4.65;1.90;;;23.40;99.90;;;;;;5068443;28;20036;-66
2023/06/21 07:39:57;;;;;;;2.53;1.45;;;23.70;99.90;;;;;;5052055;28;20044;-66
2023/06/21 07:42:23;;;;;;;2.20;1.33;;;24.00;99.90;;;;;;5068985;28;20501;-66
2023/06/21 07:44:53;;;;;;;2.70;1.48;;;24.10;99.90;;;;;;5051631;28;20044;-66
2023/06/21 07:47:19;;;;;;;6.32;1.45;;;24.20;99.90;;;;;;5051965;28;20388;-65
2023/06/21 07:49:45;;;;;;;4.60;1.60;;;24.40;99.90;;;;;;5047311;28;20045;-65
2023/06/21 07:52:11;;;;;;;3.65;1.23;;;24.50;99.90;;;;;;5069146;28;20056;-66
2023/06/21 07:54:37;;;;;;;5.60;1.23;;;24.50;99.90;;;;;;5067418;28;20101;-66
2023/06/21 07:57:03;;;;;;;3.95;1.67;;;24.50;99.90;;;;;;5068050;28;20119;-65
2023/06/21 07:59:30;;;;;;;3.33;1.67;;;24.60;99.90;;;;;;5059437;28;20039;-66
2023/06/21 08:01:56;;;;;;;2.92;1.25;;;24.80;99.90;;;;;;5087674;28;20043;-66
2023/06/21 08:04:22;;;;;;;6.75;1.92;;;24.90;99.90;;;;;;5071523;28;20379;-66
2023/06/21 08:06:48;;;;;;;4.15;1.85;;;25.00;99.90;;;;;;5081755;28;20032;-65
2023/06/21 08:09:14;;;;;;;3.20;1.60;;;25.00;99.90;;;;;;5068840;28;20036;-66
2023/06/21 08:11:39;;;;;;;6.80;1.60;;;25.20;99.90;;;;;;5068006;28;20508;-66
2023/06/21 08:14:05;;;;;;;2.92;1.20;;;25.40;99.90;;;;;;5068011;28;20089;-66
2023/06/21 08:16:31;;;;;;;3.53;1.40;;;25.60;99.90;;;;;;5068772;28;20115;-66
2023/06/21 08:18:57;;;;;;;2.92;1.52;;;25.60;99.90;;;;;;5068157;28;20087;-66
2023/06/21 08:21:23;;;;;;;6.00;1.80;;;25.70;99.90;;;;;;5051475;28;20149;-66
2023/06/21 08:23:49;;;;;;;3.30;1.55;;;25.60;99.90;;;;;;5069540;28;20040;-66
2023/06/21 08:26:15;;;;;;;3.88;1.67;;;25.60;99.90;;;;;;5068932;28;20028;-65
2023/06/21 08:28:41;;;;;;;3.67;1.60;;;25.70;99.90;;;;;;5070094;28;20037;-67
2023/06/21 08:31:07;;;;;;;2.28;1.15;;;25.70;99.90;;;;;;5051375;28;20043;-67
2023/06/21 08:33:33;;;;;;;2.20;1.40;;;25.70;99.90;;;;;;5052362;28;20052;-66
2023/06/21 08:35:58;;;;;;;3.35;1.50;;;25.90;99.90;;;;;;5053755;28;20384;-67
2023/06/21 08:38:24;;;;;;;2.75;1.38;;;26.20;99.90;;;;;;5073639;28;20076;-66
2023/06/21 08:40:50;;;;;;;2.72;1.63;;;26.30;99.90;;;;;;5056152;28;20416;-68
2023/06/21 08:43:16;;;;;;;4.00;1.15;;;26.50;99.90;;;;;;5072837;28;20051;-67
2023/06/21 08:45:42;;;;;;;3.95;1.17;;;26.70;99.90;;;;;;5072497;28;20032;-67
2023/06/21 08:48:09;;;;;;;2.70;1.42;;;26.90;99.90;;;;;;5073020;28;20758;-68
2023/06/21 08:50:40;;;;;;;3.40;1.80;;;26.90;99.90;;;;;;5071722;28;20540;-67
2023/06/21 08:53:08;;;;;;;2.55;1.17;;;26.90;99.90;;;;;;5072568;28;20525;-69
2023/06/21 08:55:36;;;;;;;2.03;1.25;;;27.00;99.90;;;;;;5055515;28;20041;-66
2023/06/21 08:58:12;;;;;;;2.80;1.25;;;27.00;99.90;;;;;;5070874;28;20037;-68
2023/06/21 09:01:00;;;;;;;2.80;1.20;;;27.10;99.90;;;;;;5091247;28;20036;-67
2023/06/21 09:03:32;;;;;;;2.70;1.17;;;27.10;99.90;;;;;;5084327;28;20097;-68
2023/06/21 09:06:10;;;;;;;3.35;1.55;;;27.40;99.90;;;;;;5073184;28;20072;-69
2023/06/21 09:08:39;;;;;;;1.65;0.73;;;27.50;99.90;;;;;;5073853;28;20036;-69
2023/06/21 09:11:07;;;;;;;2.85;0.90;;;27.60;99.90;;;;;;5072343;28;20036;-67
2023/06/21 09:13:34;;;;;;;1.97;1.00;;;27.50;99.90;;;;;;5071730;28;20040;-68
2023/06/21 09:16:03;;;;;;;2.17;1.33;;;27.40;99.90;;;;;;5073402;28;20074;-67
2023/06/21 09:18:35;;;;;;;;;;;27.50;99.90;;;;;;5073271;28;20040;-67
2023/06/21 09:21:02;;;;;;;2.28;1.15;;;27.40;99.90;;;;;;5073711;28;20284;-67
2023/06/21 09:23:28;;;;;;;2.70;0.98;;;27.40;99.90;;;;;;5072253;28;20468;-67
2023/06/21 09:25:57;;;;;;;2.70;1.15;;;27.50;99.90;;;;;;5072848;28;20079;-69
2023/06/21 09:28:22;;;;;;;;;;;27.50;99.90;;;;;;5072436;28;20123;-70
2023/06/21 09:30:48;;;;;;;4.00;1.50;;;27.50;99.90;;;;;;5073201;28;19966;-68
2023/06/21 09:33:15;;;;;;;1.48;0.77;;;27.50;99.90;;;;;;5065989;28;20052;-69
2023/06/21 09:35:42;;;;;;;4.05;0.95;;;27.60;99.90;;;;;;5055438;28;20036;-67
2023/06/21 09:38:32;;;;;;;2.35;1.02;;;27.60;99.90;;;;;;5072833;28;20051;-68
2023/06/21 09:41:00;;;;;;;2.20;1.10;;;27.50;99.50;;;;;;5071340;28;20067;-68
2023/06/21 09:43:26;;;;;;;1.70;0.98;;;27.30;99.90;;;;;;5072785;28;20102;-68
2023/06/21 09:46:09;;;;;;;3.03;1.27;;;27.00;99.90;;;;;;5073066;28;20036;-67
2023/06/21 09:48:36;;;;;;;3.00;1.40;;;26.70;99.40;;;;;;5054563;28;20033;-68
2023/06/21 09:51:03;;;;;;;2.35;1.02;;;26.60;99.90;;;;;;5071634;28;20380;-68
2023/06/21 09:53:29;;;;;;;4.03;1.35;;;26.70;99.90;;;;;;5053992;28;20091;-67
2023/06/21 09:55:59;;;;;;;3.05;1.35;;;27.00;99.90;;;;;;5071331;28;20056;-68
2023/06/21 09:58:25;;;;;;;1.92;1.08;;;27.10;99.90;;;;;;5071502;28;20114;-67
2023/06/21 10:00:51;;;;;;;2.95;1.50;;;27.20;99.90;;;;;;5070709;28;20052;-68
2023/06/21 10:03:22;;;;;;;2.67;1.48;;;27.50;99.90;;;;;;5071435;28;20110;-66
2023/06/21 10:05:55;;;;;;;2.70;1.35;;;27.80;99.90;;;;;;5071276;28;20492;-66
2023/06/21 10:08:28;;;;;;;2.40;1.27;;;27.70;99.00;;;;;;5070852;28;20440;-66
2023/06/21 10:10:54;;;;;;;2.13;1.20;;;27.30;98.70;;;;;;5072270;28;20072;-66
2023/06/21 10:13:26;;;;;;;2.83;1.27;;;27.20;99.10;;;;;;5072495;28;20037;-68
2023/06/21 10:15:53;;;;;;;2.13;1.25;;;27.30;99.30;;;;;;5068891;28;20532;-67
2023/06/21 10:18:19;;;;;;;3.22;1.20;;;27.60;99.10;;;;;;5070829;28;20052;-68
2023/06/21 10:20:51;;;;;;;3.38;1.60;;;28.00;99.10;;;;;;5070179;28;20086;-67
2023/06/21 10:23:18;;;;;;;3.65;1.40;;;28.20;98.50;;;;;;5070403;28;20102;-66
2023/06/21 10:25:46;;;;;;;4.43;1.55;;;28.10;97.30;;;;;;5069528;28;20076;-66
2023/06/21 10:28:15;;;;;;;5.53;1.65;;;27.70;97.50;;;;;;5053442;28;20119;-67
2023/06/21 10:30:42;;;;;;;;;;;27.60;97.20;;;;;;5070707;28;20040;-66
2023/06/21 10:33:09;;;;;;;6.05;1.70;;;27.30;96.30;;;;;;5070328;28;19916;-66
2023/06/21 10:35:38;;;;;;;2.67;1.42;;;27.20;97.30;;;;;;5053463;28;20040;-66
2023/06/21 10:38:11;;;;;;;2.33;1.25;;;27.20;97.00;;;;;;5070689;28;20476;-66
2023/06/21 10:40:37;;;;;;;2.47;1.40;;;27.20;97.10;;;;;;5071453;28;20037;-66
2023/06/21 10:43:04;;;;;;;3.70;1.77;;;27.40;97.00;;;;;;5069466;28;20135;-67
2023/06/21 10:45:31;;;;;;;3.00;1.20;;;27.50;96.90;;;;;;5069742;28;20056;-67
2023/06/21 10:47:57;;;;;;;2.67;1.02;;;27.50;97.00;;;;;;5070607;28;20041;-66
2023/06/21 10:50:24;;;;;;;2.70;1.20;;;27.40;96.50;;;;;;5052258;28;20158;-68
2023/06/21 10:52:57;;;;;;;2.13;1.30;;;27.30;96.70;;;;;;5045312;28;20512;-67
2023/06/21 10:55:24;;;;;;;2.40;1.10;;;27.30;96.70;;;;;;5049388;28;20441;-67
2023/06/21 10:57:55;;;;;;;2.90;1.35;;;27.40;96.70;;;;;;5050755;28;20056;-67
2023/06/21 11:00:23;;;;;;;2.20;1.20;;;27.70;96.90;;;;;;5080164;28;20066;-66
2023/06/21 11:02:49;;;;;;;3.00;1.55;;;28.00;96.60;;;;;;5091315;28;20050;-66
2023/06/21 11:05:20;;;;;;;4.13;2.35;;;28.10;96.10;;;;;;5089379;28;20044;-66
2023/06/21 11:08:05;;;;;;;2.03;1.08;;;28.10;95.90;;;;;;5073390;28;20125;-66
2023/06/21 11:10:46;;;;;;;3.00;1.33;;;27.70;95.10;;;;;;5089542;28;20039;-67
2023/06/21 11:13:13;;;;;;;1.92;0.88;;;27.60;96.20;;;;;;5090276;28;20483;-67
2023/06/21 11:15:40;;;;;;;2.33;1.27;;;27.80;96.00;;;;;;5067343;28;20056;-67
2023/06/21 11:18:08;;;;;;;2.95;1.40;;;28.10;94.90;;;;;;5061740;28;20097;-67
2023/06/21 11:21:05;;;;;;;1.65;0.82;;;28.20;94.70;;;;;;5069085;28;20497;-66
2023/06/21 11:23:46;;;;;;;2.37;1.13;;;28.10;92.10;;;;;;5064066;28;20135;-67
2023/06/21 11:26:16;;;;;;;3.58;1.15;;;28.10;94.50;;;;;;5065168;28;20128;-68
2023/06/21 11:28:48;;;;;;;2.05;0.98;;;28.40;94.30;;;;;;5049393;28;20041;-67
2023/06/21 11:31:16;;;;;;;2.88;1.10;;;28.50;93.50;;;;;;5068311;28;20048;-66
2023/06/21 11:33:51;;;;;;;1.50;0.90;;;28.60;93.90;;;;;;5067859;28;20052;-65
2023/06/21 11:36:31;;;;;;;2.22;1.02;;;28.70;93.20;;;;;;5068608;28;20033;-66
2023/06/21 11:39:10;;;;;;;2.67;0.85;;;28.50;93.00;;;;;;5069142;28;20040;-68
2023/06/21 11:41:57;;;;;;;2.17;1.02;;;28.30;92.80;;;;;;5068653;28;20043;-66
2023/06/21 11:44:27;;;;;;;2.72;1.20;;;28.10;92.80;;;;;;5066653;28;20044;-66
2023/06/21 11:47:14;;;;;;;2.08;1.00;;;27.90;92.60;;;;;;5067796;28;20115;-66
2023/06/21 11:49:47;;;;;;;2.95;1.70;;;27.90;93.90;;;;;;5068350;28;20541;-66
2023/06/21 11:52:13;;;;;;;3.53;1.33;;;28.20;93.90;;;;;;5051390;28;20135;-66
2023/06/21 11:54:39;;;;;;;3.53;1.60;;;28.40;93.60;;;;;;5051127;28;20048;-67
2023/06/21 11:57:06;;;;;;;2.28;1.55;;;28.50;93.20;;;;;;5068094;28;20570;-66
2023/06/21 11:59:33;;;;;;;3.58;1.67;;;28.50;93.00;;;;;;5077332;28;20036;-66
2023/06/21 12:02:20;;;;;;;1.60;0.88;;;28.60;93.30;;;;;;5071821;28;20123;-66
2023/06/21 12:04:48;;;;;;;3.38;1.48;;;28.60;92.10;;;;;;5088432;28;20028;-66
2023/06/21 12:07:16;;;;;;;1.53;0.67;;;28.50;92.80;;;;;;5089312;28;20122;-66
2023/06/21 12:09:49;;;;;;;1.60;0.85;;;28.50;92.10;;;;;;5071116;28;20036;-67
2023/06/21 12:12:15;;;;;;;2.38;1.25;;;28.40;92.00;;;;;;5071193;28;20036;-67
2023/06/21 12:14:40;;;;;;;1.27;0.80;;;28.40;92.10;;;;;;5070960;28;20092;-67
2023/06/21 12:17:06;;;;;;;3.28;1.38;;;28.50;92.00;;;;;;5088222;28;20484;-67
2023/06/21 12:19:33;;;;;;;2.08;0.68;;;28.50;91.10;;;;;;5087967;28;20047;-66
2023/06/21 12:22:01;;;;;;;2.03;1.00;;;28.40;90.20;;;;;;5087789;28;20039;-66
2023/06/21 12:24:32;;;;;;;1.93;0.93;;;28.30;90.80;;;;;;5089170;28;20518;-66
2023/06/21 12:27:00;;;;;;;2.65;1.08;;;28.30;90.50;;;;;;5088042;28;20044;-66
2023/06/21 12:29:27;;;;;;;3.25;1.20;;;28.40;90.50;;;;;;5087456;28;20039;-66
2023/06/21 12:31:56;;;;;;;1.63;1.00;;;28.30;90.30;;;;;;5088271;28;20083;-66
2023/06/21 12:34:24;;;;;;;3.35;1.40;;;28.30;90.30;;;;;;5087852;28;20257;-66
2023/06/21 12:36:51;;;;;;;3.03;1.02;;;28.40;89.90;;;;;;5089671;28;20415;-67
2023/06/21 12:39:18;;;;;;;2.05;0.77;;;28.30;90.00;;;;;;5072430;28;20562;-67
2023/06/21 12:41:44;;;;;;;1.52;0.98;;;28.40;89.40;;;;;;5088487;28;20032;-66
2023/06/21 12:44:25;;;;;;;2.65;1.17;;;28.40;88.80;;;;;;5088064;28;20512;-66
2023/06/21 12:46:52;;;;;;;3.47;1.67;;;28.20;88.60;;;;;;5087781;28;20508;-66
2023/06/21 12:49:18;;;;;;;2.92;1.50;;;27.90;87.90;;;;;;5070620;28;20037;-67
2023/06/21 12:51:47;;;;;;;3.72;1.60;;;27.70;89.10;;;;;;5067193;28;20524;-66